createdAt,value
2024-03-04T00:01:17.355Z,99276.34
2024-03-04T00:03:45.354Z,99287.72
2024-03-04T00:06:16.046Z,99287.72
2024-03-04T00:08:43.960Z,99291.59
2024-03-04T00:11:12.807Z,99295.63
2024-03-04T00:13:40.913Z,99302.13
2024-03-04T00:16:10.245Z,99312.25
2024-03-04T00:18:38.400Z,99315.16
2024-03-04T00:21:07.296Z,99316.25
2024-03-04T00:23:37.286Z,99330.66
2024-03-04T00:26:08.270Z,99330.94
2024-03-04T00:28:36.622Z,99327.22
2024-03-04T00:31:05.503Z,99332.47
2024-03-04T00:33:33.678Z,99335.81
2024-03-04T00:36:01.923Z,99329.72
2024-03-04T00:38:31.036Z,99340.34
2024-03-04T00:41:00.376Z,99331.78
2024-03-04T00:43:30.807Z,99335.25
2024-03-04T00:46:00.216Z,99329.28
2024-03-04T00:48:28.453Z,99328.63
2024-03-04T00:50:58.001Z,99334.28
2024-03-04T00:53:26.578Z,99341.63
2024-03-04T00:55:57.028Z,99333.31
2024-03-04T00:58:26.281Z,99332.22
2024-03-04T01:00:54.431Z,99339.41
2024-03-04T01:03:22.556Z,99334.28
2024-03-04T01:05:50.779Z,99336.25
2024-03-04T01:08:19.710Z,99347.59
2024-03-04T01:10:48.303Z,99348.69
2024-03-04T01:13:17.740Z,99356.81
2024-03-04T01:15:48.606Z,99362.22
2024-03-04T01:18:18.801Z,99359.19
2024-03-04T01:20:46.925Z,99369.81
2024-03-04T01:23:16.248Z,99380.88
2024-03-04T01:25:45.506Z,99382.94
2024-03-04T01:28:14.131Z,99389.03
2024-03-04T01:30:42.606Z,99383.22
2024-03-04T01:33:14.555Z,99391.63
2024-03-04T01:35:43.165Z,99388.44
2024-03-04T01:38:11.495Z,99397.28
2024-03-04T01:40:39.904Z,99401.13
2024-03-04T01:43:08.028Z,99402.81
2024-03-04T01:45:36.166Z,99410.81
2024-03-04T01:48:06.034Z,99407.09
2024-03-04T01:50:42.473Z,99407.78
2024-03-04T01:53:13.840Z,99408.06
2024-03-04T01:55:45.018Z,99408.47
2024-03-04T01:58:21.314Z,99410.28
2024-03-04T02:00:51.046Z,99405.84
2024-03-04T02:03:21.542Z,99414.00
2024-03-04T02:05:52.936Z,99414.00
2024-03-04T02:08:24.496Z,99411.50
2024-03-04T02:10:52.960Z,99429.06
2024-03-04T02:13:23.040Z,99432.22
2024-03-04T02:15:51.609Z,99447.97
2024-03-04T02:18:20.789Z,99442.72
2024-03-04T02:20:56.144Z,99441.06
2024-03-04T02:23:26.056Z,99449.75
2024-03-04T02:25:54.886Z,99448.66
2024-03-04T02:28:26.734Z,99447.00
2024-03-04T02:30:59.508Z,99454.19
2024-03-04T02:33:27.888Z,99458.31
2024-03-04T02:35:56.006Z,99448.75
2024-03-04T02:38:27.671Z,99454.72
2024-03-04T02:41:07.676Z,99450.91
2024-03-04T02:43:36.445Z,99456.25
2024-03-04T02:46:05.317Z,99466.91
2024-03-04T02:48:37.365Z,99472.50
2024-03-04T02:51:05.598Z,99476.38
2024-03-04T02:53:39.169Z,99481.84
2024-03-04T02:56:07.791Z,99486.53
2024-03-04T02:58:35.805Z,99492.16
2024-03-04T03:01:04.150Z,99491.88
2024-03-04T03:03:32.125Z,99505.38
2024-03-04T03:05:59.963Z,99501.09
2024-03-04T03:08:28.556Z,99518.13
2024-03-04T03:11:00.642Z,99520.19
2024-03-04T03:13:29.507Z,99524.72
2024-03-04T03:15:57.538Z,99522.09
2024-03-04T03:18:25.637Z,99520.56
2024-03-04T03:20:52.772Z,99531.91
2024-03-04T03:23:20.616Z,99531.31
2024-03-04T03:25:49.140Z,99528.81
2024-03-04T03:28:18.550Z,99523.84
2024-03-04T03:30:46.584Z,99530.16
2024-03-04T03:33:14.604Z,99538.50
2024-03-04T03:35:42.788Z,99538.19
2024-03-04T03:38:13.118Z,99538.53
2024-03-04T03:40:41.134Z,99542.72
2024-03-04T03:43:09.094Z,99547.94
2024-03-04T03:45:42.479Z,99553.47
2024-03-04T03:48:11.105Z,99558.00
2024-03-04T03:50:39.079Z,99559.69
2024-03-04T03:53:07.210Z,99569.34
2024-03-04T03:55:35.586Z,99579.22
2024-03-04T03:58:04.330Z,99584.69
2024-03-04T04:00:33.773Z,99586.03
2024-03-04T04:03:05.916Z,99584.47
2024-03-04T04:05:33.944Z,99583.19
2024-03-04T04:08:01.892Z,99579.72
2024-03-04T04:10:30.333Z,99588.66
2024-03-04T04:12:58.809Z,99583.09
2024-03-04T04:15:29.637Z,99589.28
2024-03-04T04:17:58.736Z,99585.59
2024-03-04T04:20:28.900Z,99594.13
2024-03-04T04:23:00.833Z,99594.13
2024-03-04T04:25:28.889Z,99601.19
2024-03-04T04:27:57.060Z,99597.84
2024-03-04T04:30:25.032Z,99602.00
2024-03-04T04:32:53.029Z,99607.50
2024-03-04T04:35:21.376Z,99616.66
2024-03-04T04:37:50.745Z,99623.91
2024-03-04T04:40:20.465Z,99619.84
2024-03-04T04:42:49.727Z,99626.75
2024-03-04T04:45:18.871Z,99625.44
2024-03-04T04:47:46.989Z,99623.78
2024-03-04T04:50:15.218Z,99629.63
2024-03-04T04:52:43.262Z,99633.19
2024-03-04T04:55:15.755Z,99650.69
2024-03-04T04:57:49.074Z,99649.72
2024-03-04T05:00:17.894Z,99665.31
2024-03-04T05:02:45.899Z,99661.84
2024-03-04T05:05:14.650Z,99673.16
2024-03-04T05:07:42.805Z,99669.69
2024-03-04T05:10:14.724Z,99673.78
2024-03-04T05:12:43.826Z,99677.22
2024-03-04T05:15:12.242Z,99681.53
2024-03-04T05:17:40.170Z,99681.66
2024-03-04T05:20:10.867Z,99684.97
2024-03-04T05:22:39.627Z,99688.19
2024-03-04T05:25:09.330Z,99704.50
2024-03-04T05:27:39.884Z,99698.78
2024-03-04T05:30:09.666Z,99702.34
2024-03-04T05:32:38.198Z,99694.59
2024-03-04T05:35:08.275Z,99703.66
2024-03-04T05:37:36.332Z,99702.59
2024-03-04T05:40:11.074Z,99709.63
2024-03-04T05:42:42.500Z,99712.84
2024-03-04T05:45:11.536Z,99719.03
2024-03-04T05:47:39.541Z,99720.09
2024-03-04T05:50:08.773Z,99715.69
2024-03-04T05:52:37.153Z,99716.16
2024-03-04T05:55:07.475Z,99719.97
2024-03-04T05:57:36.223Z,99720.56
2024-03-04T06:00:13.142Z,99723.53
2024-03-04T06:02:41.285Z,99731.38
2024-03-04T06:05:10.035Z,99738.06
2024-03-04T06:07:38.087Z,99737.00
2024-03-04T06:10:06.840Z,99736.84
2024-03-04T06:12:34.948Z,99744.22
2024-03-04T06:15:07.649Z,99751.88
2024-03-04T06:17:35.876Z,99757.47
2024-03-04T06:20:12.043Z,99758.75
2024-03-04T06:22:40.682Z,99765.53
2024-03-04T06:25:09.881Z,99768.16
2024-03-04T06:27:37.866Z,99781.16
2024-03-04T06:30:12.550Z,99775.66
2024-03-04T06:32:40.770Z,99781.38
2024-03-04T06:35:11.441Z,99783.06
2024-03-04T06:37:40.241Z,99796.66
2024-03-04T06:40:09.609Z,99789.28
2024-03-04T06:42:39.899Z,99796.06
2024-03-04T06:45:14.231Z,99800.22
2024-03-04T06:47:43.619Z,99806.06
2024-03-04T06:50:11.779Z,99813.50
2024-03-04T06:52:39.998Z,99814.78
2024-03-04T06:55:08.797Z,99814.41
2024-03-04T06:57:36.904Z,99812.47
2024-03-04T07:00:06.494Z,99815.94
2024-03-04T07:02:35.908Z,99817.50
2024-03-04T07:05:07.734Z,99813.91
2024-03-04T07:07:35.924Z,99817.59
2024-03-04T07:10:04.482Z,99814.44
2024-03-04T07:12:32.658Z,99814.91
2024-03-04T07:15:01.143Z,99812.06
2024-03-04T07:17:30.445Z,99823.25
2024-03-04T07:20:00.161Z,99816.06
2024-03-04T07:22:30.515Z,99826.78
2024-03-04T07:24:58.700Z,99816.63
2024-03-04T07:27:26.863Z,99824.13
2024-03-04T07:30:02.299Z,99822.09
2024-03-04T07:32:31.462Z,99822.91
2024-03-04T07:35:01.369Z,99819.34
2024-03-04T07:37:34.713Z,99819.66
2024-03-04T07:40:05.472Z,99826.06
2024-03-04T07:42:33.832Z,99826.38
2024-03-04T07:45:04.545Z,99830.16
2024-03-04T07:47:32.612Z,99831.56
2024-03-04T07:50:02.336Z,99842.56
2024-03-04T07:52:30.469Z,99838.56
2024-03-04T07:55:00.284Z,99838.06
2024-03-04T07:57:28.670Z,99849.97
2024-03-04T07:59:57.592Z,99847.34
2024-03-04T08:02:25.744Z,99855.94
2024-03-04T08:04:54.875Z,99853.75
2024-03-04T08:07:24.925Z,99863.06
2024-03-04T08:09:53.052Z,99867.91
2024-03-04T08:12:21.332Z,99866.50
2024-03-04T08:14:49.539Z,99869.31
2024-03-04T08:17:19.149Z,99871.00
2024-03-04T08:19:49.514Z,99873.94
2024-03-04T08:22:17.990Z,99869.81
2024-03-04T08:24:50.118Z,99876.34
2024-03-04T08:27:21.094Z,99877.25
2024-03-04T08:29:49.726Z,99881.47
2024-03-04T08:32:18.074Z,99885.06
2024-03-04T08:34:48.480Z,99879.41
2024-03-04T08:37:18.738Z,99881.66
2024-03-04T08:39:48.485Z,99884.69
2024-03-04T08:42:18.148Z,99882.94
2024-03-04T08:44:46.142Z,99888.22
2024-03-04T08:47:16.879Z,99890.88
2024-03-04T08:49:45.161Z,99888.59
2024-03-04T08:52:15.971Z,99888.03
2024-03-04T08:54:44.241Z,99893.19
2024-03-04T08:57:12.396Z,99890.13
2024-03-04T08:59:43.096Z,99890.97
2024-03-04T09:02:11.918Z,99898.75
2024-03-04T09:04:49.152Z,99899.13
2024-03-04T09:07:17.907Z,99907.88
2024-03-04T09:09:52.077Z,99908.44
2024-03-04T09:12:22.807Z,99908.59
2024-03-04T09:14:52.848Z,99907.75
2024-03-04T09:17:21.977Z,99914.44
2024-03-04T09:19:50.220Z,99913.56
2024-03-04T09:22:18.363Z,99921.22
2024-03-04T09:24:46.702Z,99913.59
2024-03-04T09:27:15.280Z,99913.34
2024-03-04T09:29:43.377Z,99915.00
2024-03-04T09:32:13.022Z,99917.78
2024-03-04T09:34:43.677Z,99918.03
2024-03-04T09:37:11.798Z,99922.06
2024-03-04T09:39:39.833Z,99914.97
2024-03-04T09:42:08.740Z,99913.19
2024-03-04T09:44:39.032Z,99920.41
2024-03-04T09:47:07.551Z,99924.00
2024-03-04T09:49:38.130Z,99930.28
2024-03-04T09:52:08.463Z,99924.28
2024-03-04T09:54:39.431Z,99920.13
2024-03-04T09:57:08.600Z,99921.34
2024-03-04T09:59:39.599Z,99928.28
2024-03-04T10:02:13.516Z,99931.34
2024-03-04T10:04:43.845Z,99935.09
2024-03-04T10:07:12.076Z,99938.28
2024-03-04T10:09:42.158Z,99938.44
2024-03-04T10:12:11.942Z,99938.63
2024-03-04T10:15:05.882Z,99943.16
2024-03-04T10:17:33.997Z,99942.75
2024-03-04T10:20:07.663Z,99937.44
2024-03-04T10:22:39.877Z,99938.53
2024-03-04T10:25:10.189Z,99930.06
2024-03-04T10:27:39.851Z,99940.56
2024-03-04T10:30:13.336Z,99932.91
2024-03-04T10:32:47.869Z,99943.78
2024-03-04T10:35:18.543Z,99927.81
2024-03-04T10:37:47.222Z,99926.66
2024-03-04T10:40:15.657Z,99917.47
2024-03-04T10:42:47.688Z,99922.19
2024-03-04T10:45:17.021Z,99922.41
2024-03-04T10:47:47.274Z,99918.31
2024-03-04T10:50:17.765Z,99923.50
2024-03-04T10:52:46.090Z,99928.34
2024-03-04T10:55:15.072Z,99933.94
2024-03-04T10:57:45.234Z,99930.31
2024-03-04T11:00:26.355Z,99936.72
2024-03-04T11:03:05.498Z,99936.28
2024-03-04T11:05:36.116Z,99936.53
2024-03-04T11:08:06.996Z,99945.69
2024-03-04T11:10:39.313Z,99942.09
2024-03-04T11:13:16.604Z,99934.56
2024-03-04T11:15:52.539Z,99936.75
2024-03-04T11:18:32.956Z,99945.97
2024-03-04T11:21:03.144Z,99935.66
2024-03-04T11:23:31.850Z,99931.47
2024-03-04T11:26:00.725Z,99940.53
2024-03-04T11:28:34.630Z,99925.22
2024-03-04T11:31:02.888Z,99933.28
2024-03-04T11:33:41.971Z,99937.28
2024-03-04T11:36:12.802Z,99941.56
2024-03-04T11:38:43.943Z,99938.78
2024-03-04T11:41:12.537Z,99942.66
2024-03-04T11:43:47.655Z,99948.28
2024-03-04T11:46:17.649Z,99951.41
2024-03-04T11:48:48.712Z,99950.63
2024-03-04T11:51:47.817Z,99950.31
2024-03-04T11:54:18.872Z,99954.78
2024-03-04T11:56:47.711Z,99949.53
2024-03-04T11:59:15.757Z,99958.59
2024-03-04T12:01:44.548Z,99959.16
2024-03-04T12:04:12.880Z,99953.41
2024-03-04T12:06:41.034Z,99958.69
2024-03-04T12:09:29.014Z,99961.16
2024-03-04T12:11:59.857Z,99957.66
2024-03-04T12:14:27.962Z,99968.06
2024-03-04T12:16:56.255Z,99965.03
2024-03-04T12:19:25.141Z,99973.09
2024-03-04T12:21:55.684Z,99968.63
2024-03-04T12:24:25.446Z,99971.81
2024-03-04T12:26:56.185Z,99961.25
2024-03-04T12:29:25.544Z,99967.50
2024-03-04T12:31:54.769Z,99966.69
2024-03-04T12:34:23.802Z,99966.69
2024-03-04T12:36:51.827Z,99968.38
2024-03-04T12:39:21.806Z,99968.50
2024-03-04T12:41:51.808Z,99963.22
2024-03-04T12:44:22.048Z,99964.69
2024-03-04T12:46:50.850Z,99958.34
2024-03-04T12:49:19.065Z,99968.09
2024-03-04T12:51:48.103Z,99962.22
2024-03-04T12:54:29.023Z,99966.28
2024-03-04T12:56:58.562Z,99965.06
2024-03-04T12:59:26.529Z,99957.41
2024-03-04T13:01:55.269Z,99967.63
2024-03-04T13:04:23.462Z,99972.28
2024-03-04T13:06:53.989Z,99967.81
2024-03-04T13:09:22.026Z,99974.81
2024-03-04T13:11:54.040Z,99968.16
2024-03-04T13:14:23.894Z,99970.38
2024-03-04T13:16:51.924Z,99972.69
2024-03-04T13:19:20.035Z,99966.69
2024-03-04T13:21:48.273Z,99960.03
2024-03-04T13:24:16.213Z,99964.50
2024-03-04T13:26:44.534Z,99969.06
2024-03-04T13:29:12.563Z,99965.19
2024-03-04T13:31:44.295Z,99960.72
2024-03-04T13:34:12.529Z,99967.50
2024-03-04T13:36:40.790Z,99962.94
2024-03-04T13:39:08.882Z,99958.78
2024-03-04T13:41:36.865Z,99965.72
2024-03-04T13:44:05.768Z,99963.63
2024-03-04T13:46:33.956Z,99964.03
2024-03-04T13:49:08.209Z,99963.63
2024-03-04T13:51:36.310Z,99963.03
2024-03-04T13:54:04.424Z,99967.03
2024-03-04T13:56:34.352Z,99964.72
2024-03-04T13:59:07.323Z,99960.88
2024-03-04T14:01:38.905Z,99960.34
2024-03-04T14:04:13.949Z,99955.16
2024-03-04T14:06:45.117Z,99958.41
2024-03-04T14:09:17.207Z,99955.81
2024-03-04T14:11:45.411Z,99958.13
2024-03-04T14:14:13.302Z,99956.03
2024-03-04T14:16:41.840Z,99965.09
2024-03-04T14:19:09.988Z,99957.03
2024-03-04T14:21:43.986Z,99960.63
2024-03-04T14:24:11.874Z,99968.47
2024-03-04T14:26:39.905Z,99966.78
2024-03-04T14:29:07.998Z,99966.53
2024-03-04T14:31:38.225Z,99961.78
2024-03-04T14:34:07.374Z,99966.13
2024-03-04T14:36:35.398Z,99957.50
2024-03-04T14:39:05.537Z,99961.94
2024-03-04T14:41:33.968Z,99958.19
2024-03-04T14:44:01.947Z,99955.69
2024-03-04T14:46:30.566Z,99963.03
2024-03-04T14:48:59.235Z,99960.84
2024-03-04T14:51:31.528Z,99960.59
2024-03-04T14:53:59.637Z,99961.28
2024-03-04T14:56:29.924Z,99972.69
2024-03-04T14:58:58.333Z,99959.06
2024-03-04T15:01:26.484Z,99959.84
2024-03-04T15:03:54.510Z,99960.28
2024-03-04T15:06:22.502Z,99972.81
2024-03-04T15:08:51.848Z,99967.66
2024-03-04T15:11:21.920Z,99960.59
2024-03-04T15:13:51.549Z,99974.38
2024-03-04T15:16:23.228Z,99972.41
2024-03-04T15:18:54.449Z,99969.78
2024-03-04T15:21:22.500Z,99984.09
2024-03-04T15:23:50.730Z,99982.16
2024-03-04T15:26:19.176Z,99980.66
2024-03-04T15:28:47.293Z,99979.13
2024-03-04T15:31:17.176Z,99974.66
2024-03-04T15:33:46.121Z,99987.72
2024-03-04T15:36:19.088Z,99972.84
2024-03-04T15:38:52.355Z,99979.13
2024-03-04T15:41:20.317Z,99984.66
2024-03-04T15:43:48.437Z,99989.38
2024-03-04T15:46:25.409Z,99983.41
2024-03-04T15:48:53.852Z,99987.38
2024-03-04T15:51:24.029Z,99981.31
2024-03-04T15:53:52.181Z,99982.97
2024-03-04T15:56:20.216Z,99990.50
2024-03-04T15:58:48.288Z,99992.88
2024-03-04T16:01:22.078Z,99992.44
2024-03-04T16:03:51.536Z,99996.19
2024-03-04T16:06:29.763Z,100003.84
2024-03-04T16:08:57.764Z,100006.50
2024-03-04T16:11:25.980Z,99993.53
2024-03-04T16:13:54.593Z,100001.91
2024-03-04T16:16:22.774Z,100006.63
2024-03-04T16:18:52.222Z,100005.38
2024-03-04T16:21:20.554Z,100014.28
2024-03-04T16:23:48.604Z,100008.47
2024-03-04T16:26:17.678Z,100016.22
2024-03-04T16:28:46.033Z,100011.91
2024-03-04T16:31:14.146Z,100010.25
2024-03-04T16:33:45.491Z,100007.31
2024-03-04T16:36:17.039Z,100002.47
2024-03-04T16:38:49.990Z,100003.88
2024-03-04T16:41:22.631Z,100010.25
2024-03-04T16:43:51.054Z,100004.84
2024-03-04T16:46:19.381Z,100006.34
2024-03-04T16:48:48.579Z,100006.63
2024-03-04T16:51:18.043Z,100006.38
2024-03-04T16:53:46.094Z,100003.88
2024-03-04T16:56:14.381Z,100016.38
2024-03-04T16:58:42.679Z,100011.91
2024-03-04T17:01:11.436Z,100014.72
2024-03-04T17:03:41.875Z,100011.91
2024-03-04T17:06:11.746Z,100018.03
2024-03-04T17:08:41.992Z,100014.84
2024-03-04T17:11:12.946Z,100011.22
2024-03-04T17:13:41.017Z,100017.75
2024-03-04T17:16:09.015Z,100026.63
2024-03-04T17:18:37.025Z,100018.59
2024-03-04T17:21:05.579Z,100029.69
2024-03-04T17:23:33.720Z,100032.63
2024-03-04T17:26:06.231Z,100036.09
2024-03-04T17:28:34.297Z,100037.91
2024-03-04T17:31:04.563Z,100042.75
2024-03-04T17:33:35.982Z,100041.09
2024-03-04T17:36:05.082Z,100042.09
2024-03-04T17:38:33.379Z,100048.16
2024-03-04T17:41:06.017Z,100048.59
2024-03-04T17:43:35.514Z,100047.34
2024-03-04T17:46:05.236Z,100049.53
2024-03-04T17:48:36.286Z,100053.97
2024-03-04T17:51:04.912Z,100051.50
2024-03-04T17:53:33.676Z,100050.78
2024-03-04T17:56:01.784Z,100057.88
2024-03-04T17:58:30.601Z,100058.44
2024-03-04T18:01:00.127Z,100056.34
2024-03-04T18:03:28.425Z,100056.47
2024-03-04T18:05:56.580Z,100058.13
2024-03-04T18:08:24.671Z,100049.09
2024-03-04T18:10:52.935Z,100054.66
2024-03-04T18:13:23.561Z,100055.78
2024-03-04T18:15:52.898Z,100055.09
2024-03-04T18:18:23.120Z,100059.66
2024-03-04T18:20:52.349Z,100049.81
2024-03-04T18:23:20.921Z,100047.28
2024-03-04T18:25:49.762Z,100052.69
2024-03-04T18:28:19.686Z,100051.88
2024-03-04T18:30:47.692Z,100061.47
2024-03-04T18:33:17.156Z,100057.16
2024-03-04T18:35:46.895Z,100056.59
2024-03-04T18:38:14.994Z,100060.91
2024-03-04T18:40:44.188Z,100060.06
2024-03-04T18:43:14.207Z,100063.53
2024-03-04T18:45:42.419Z,100065.50
2024-03-04T18:48:13.325Z,100061.16
2024-03-04T18:50:41.793Z,100061.16
2024-03-04T18:53:13.496Z,100063.53
2024-03-04T18:55:41.763Z,100059.25
2024-03-04T18:58:10.392Z,100060.22
2024-03-04T19:00:38.508Z,100061.16
2024-03-04T19:03:07.612Z,100060.22
2024-03-04T19:05:35.613Z,100058.25
2024-03-04T19:08:04.701Z,100060.78
2024-03-04T19:10:34.164Z,100067.41
2024-03-04T19:13:04.308Z,100066.31
2024-03-04T19:15:33.920Z,100072.56
2024-03-04T19:18:01.957Z,100077.41
2024-03-04T19:20:30.381Z,100079.22
2024-03-04T19:22:58.448Z,100085.06
2024-03-04T19:25:26.589Z,100084.63
2024-03-04T19:27:56.199Z,100088.22
2024-03-04T19:30:24.969Z,100084.06
2024-03-04T19:32:55.217Z,100090.88
2024-03-04T19:35:23.267Z,100092.53
2024-03-04T19:37:51.317Z,100096.28
2024-03-04T19:40:20.039Z,100094.59
2024-03-04T19:42:48.065Z,100097.25
2024-03-04T19:45:19.730Z,100095.69
2024-03-04T19:47:48.243Z,100088.75
2024-03-04T19:50:16.671Z,100091.28
2024-03-04T19:52:47.811Z,100082.50
2024-03-04T19:55:16.556Z,100092.25
2024-03-04T19:57:44.652Z,100100.16
2024-03-04T20:00:14.551Z,100103.91
2024-03-04T20:02:43.909Z,100096.81
2024-03-04T20:05:12.037Z,100102.06
2024-03-04T20:07:41.882Z,100097.91
2024-03-04T20:10:11.223Z,100096.25
2024-03-04T20:12:39.166Z,100097.09
2024-03-04T20:15:07.961Z,100101.50
2024-03-04T20:17:36.043Z,100104.16
2024-03-04T20:20:06.455Z,100107.88
2024-03-04T20:22:34.457Z,100110.66
2024-03-04T20:25:06.308Z,100109.69
2024-03-04T20:27:34.351Z,100114.28
2024-03-04T20:30:03.663Z,100109.00
2024-03-04T20:32:32.913Z,100105.53
2024-03-04T20:35:05.138Z,100111.78
2024-03-04T20:37:33.149Z,100111.91
2024-03-04T20:40:01.152Z,100112.03
2024-03-04T20:42:29.985Z,100111.31
2024-03-04T20:44:58.043Z,100111.72
2024-03-04T20:47:26.040Z,100122.97
2024-03-04T20:49:54.046Z,100121.19
2024-03-04T20:52:23.513Z,100129.09
2024-03-04T20:54:51.634Z,100125.59
2024-03-04T20:57:19.570Z,100130.47
2024-03-04T20:59:49.677Z,100123.53
2024-03-04T21:02:19.917Z,100118.41
2024-03-04T21:04:54.281Z,100123.41
2024-03-04T21:07:24.475Z,100122.84
2024-03-04T21:09:52.942Z,100129.63
2024-03-04T21:12:20.823Z,100136.56
2024-03-04T21:14:48.791Z,100129.72
2024-03-04T21:17:16.751Z,100138.09
2024-03-04T21:19:44.684Z,100138.78
2024-03-04T21:22:15.372Z,100133.09
2024-03-04T21:24:47.153Z,100135.69
2024-03-04T21:27:15.520Z,100146.34
2024-03-04T21:29:46.089Z,100144.69
2024-03-04T21:32:14.760Z,100144.56
2024-03-04T21:34:42.530Z,100141.78
2024-03-04T21:37:17.410Z,100152.47
2024-03-04T21:39:53.451Z,100152.47
2024-03-04T21:42:22.824Z,100152.47
2024-03-04T21:44:53.362Z,100150.81
2024-03-04T21:47:21.359Z,100148.00
2024-03-04T21:49:49.468Z,100154.94
2024-03-04T21:52:18.591Z,100161.66
2024-03-04T21:54:52.219Z,100159.97
2024-03-04T21:57:22.863Z,100168.13
2024-03-04T21:59:52.889Z,100163.97
2024-03-04T22:02:20.896Z,100164.34
2024-03-04T22:04:49.029Z,100165.88
2024-03-04T22:07:16.891Z,100168.53
2024-03-04T22:09:46.641Z,100168.41
2024-03-04T22:12:14.563Z,100164.91
2024-03-04T22:14:46.050Z,100166.03
2024-03-04T22:17:16.455Z,100165.31
2024-03-04T22:19:44.335Z,100160.19
2024-03-04T22:22:12.391Z,100161.97
2024-03-04T22:24:45.157Z,100150.59
2024-03-04T22:27:13.777Z,100157.69
2024-03-04T22:29:41.789Z,100155.16
2024-03-04T22:32:11.410Z,100160.56
2024-03-04T22:34:41.054Z,100162.63
2024-03-04T22:37:10.973Z,100164.56
2024-03-04T22:39:40.909Z,100163.88
2024-03-04T22:42:10.985Z,100165.66
2024-03-04T22:44:38.924Z,100163.00
2024-03-04T22:47:07.272Z,100163.16
2024-03-04T22:49:38.900Z,100163.97
2024-03-04T22:52:07.887Z,100165.66
2024-03-04T22:54:35.861Z,100172.00
2024-03-04T22:57:04.062Z,100175.19
2024-03-04T22:59:31.981Z,100179.47
2024-03-04T23:02:00.106Z,100180.44
2024-03-04T23:04:28.153Z,100180.31
2024-03-04T23:06:57.435Z,100185.97
2024-03-04T23:09:26.121Z,100184.75
2024-03-04T23:11:56.854Z,100193.41
2024-03-04T23:14:26.218Z,100192.38
2024-03-04T23:16:56.612Z,100193.59
2024-03-04T23:19:25.183Z,100190.13
2024-03-04T23:21:53.181Z,100190.97
2024-03-04T23:24:22.574Z,100197.94
2024-03-04T23:26:50.639Z,100186.97
2024-03-04T23:29:21.186Z,100196.94
2024-03-04T23:31:51.205Z,100194.44
2024-03-04T23:34:19.505Z,100193.22
2024-03-04T23:36:50.184Z,100187.91
2024-03-04T23:39:18.291Z,100193.09
2024-03-04T23:41:47.540Z,100191.31
2024-03-04T23:44:16.584Z,100196.41
2024-03-04T23:46:44.586Z,100192.13
2024-03-04T23:49:12.869Z,100194.88
2024-03-04T23:51:41.137Z,100196.69
2024-03-04T23:54:09.129Z,100194.06
2024-03-04T23:56:41.259Z,100196.81
2024-03-04T23:59:10.583Z,100188.78
